createdAt,value
2016-03-13T00:00:57.996Z,5.91
2016-03-13T00:01:57.952Z,6.14
2016-03-13T00:02:57.892Z,6.33
2016-03-13T00:03:57.847Z,6.14
2016-03-13T00:04:57.788Z,6.2
2016-03-13T00:05:57.790Z,6.35
2016-03-13T00:06:56.902Z,6.33
2016-03-13T00:07:57.593Z,6.44
2016-03-13T00:08:57.548Z,6.27
2016-03-13T00:09:57.474Z,6.3
2016-03-13T00:10:57.413Z,6.26
2016-03-13T00:11:57.354Z,6.3
2016-03-13T00:12:57.326Z,6.24
2016-03-13T00:13:57.297Z,6.31
2016-03-13T00:14:57.206Z,6.35
2016-03-13T00:15:57.145Z,6.28
2016-03-13T00:16:57.070Z,6.19
2016-03-13T00:17:57.010Z,6.3
2016-03-13T00:18:56.967Z,6.3
2016-03-13T00:19:56.891Z,6.3
2016-03-13T00:20:56.847Z,6.3
2016-03-13T00:21:56.787Z,6.08
2016-03-13T00:22:56.711Z,6.16
2016-03-13T00:23:56.667Z,6.09
2016-03-13T00:24:56.608Z,6.12
2016-03-13T00:25:56.531Z,6.2
2016-03-13T00:26:56.488Z,6.26
2016-03-13T00:27:56.428Z,6.35
2016-03-13T00:28:56.368Z,6.26
2016-03-13T00:29:56.308Z,6.27
2016-03-13T00:30:56.264Z,6.3
2016-03-13T00:31:56.205Z,6.2
2016-03-13T00:32:56.145Z,6.24
2016-03-13T00:33:56.100Z,6.17
2016-03-13T00:34:56.025Z,6.3
2016-03-13T00:35:55.965Z,6.3
2016-03-13T00:36:55.890Z,6.35
2016-03-13T00:37:55.845Z,6.36
2016-03-13T00:38:55.791Z,6.36
2016-03-13T00:39:55.762Z,6.08
2016-03-13T00:40:55.687Z,6.31
2016-03-13T00:41:55.643Z,6.22
2016-03-13T00:42:55.582Z,6.35
2016-03-13T00:43:55.523Z,6.08
2016-03-13T00:44:55.432Z,6.11
2016-03-13T00:45:55.387Z,6.09
2016-03-13T00:46:55.328Z,6.19
2016-03-13T00:47:55.267Z,6.2
2016-03-13T00:48:55.224Z,6.14
2016-03-13T00:49:55.148Z,6.09
2016-03-13T00:50:55.104Z,6.07
2016-03-13T00:51:55.029Z,6.05
2016-03-13T00:52:54.984Z,6.11
2016-03-13T00:53:54.940Z,6.11
2016-03-13T00:54:54.692Z,6.14
2016-03-13T00:55:54.805Z,5.73
2016-03-13T00:56:54.745Z,5.83
2016-03-13T00:57:54.685Z,6.04
2016-03-13T00:58:54.641Z,6.12
2016-03-13T00:59:54.581Z,6.16
2016-03-13T01:00:54.522Z,6.19
2016-03-13T01:01:54.478Z,6.19
2016-03-13T01:02:54.402Z,6.17
2016-03-13T01:03:54.342Z,6.35
2016-03-13T01:04:54.298Z,6.19
2016-03-13T01:05:54.254Z,6.17
2016-03-13T01:06:54.178Z,6.17
2016-03-13T01:07:54.119Z,6.2
2016-03-13T01:08:54.059Z,6.02
2016-03-13T01:09:54.015Z,5.87
2016-03-13T01:10:53.940Z,5.9
2016-03-13T01:11:53.896Z,6.08
2016-03-13T01:12:53.820Z,6.11
2016-03-13T01:13:53.775Z,5.72
2016-03-13T01:14:53.700Z,5.86
2016-03-13T01:15:53.640Z,5.98
2016-03-13T01:16:53.595Z,5.94
2016-03-13T01:17:53.536Z,5.82
2016-03-13T01:18:53.493Z,6.04
2016-03-13T01:19:53.417Z,5.72
2016-03-13T01:20:53.357Z,5.84
2016-03-13T01:21:53.312Z,5.91
2016-03-13T01:22:53.284Z,5.73
2016-03-13T01:23:53.177Z,5.69
2016-03-13T01:24:53.133Z,5.66
2016-03-13T01:25:53.072Z,5.89
2016-03-13T01:26:52.998Z,5.65
2016-03-13T01:27:52.938Z,5.76
2016-03-13T01:28:52.894Z,5.72
2016-03-13T01:29:52.819Z,5.75
2016-03-13T01:30:52.758Z,5.84
2016-03-13T01:31:52.699Z,5.91
2016-03-13T01:32:52.639Z,5.61
2016-03-13T01:33:52.594Z,5.73
2016-03-13T01:34:52.550Z,5.66
2016-03-13T01:35:52.474Z,5.71
2016-03-13T01:36:52.415Z,5.62
2016-03-13T01:37:52.341Z,5.79
2016-03-13T01:38:52.280Z,5.72
2016-03-13T01:39:52.252Z,5.8
2016-03-13T01:40:52.191Z,5.84
2016-03-13T01:41:52.163Z,5.86
2016-03-13T01:42:52.071Z,5.87
2016-03-13T01:43:51.981Z,5.82
2016-03-13T01:44:51.952Z,5.93
2016-03-13T01:45:51.877Z,5.79
2016-03-13T01:46:51.833Z,5.72
2016-03-13T01:47:51.757Z,5.68
2016-03-13T01:48:51.698Z,5.76
2016-03-13T01:49:51.654Z,5.76
2016-03-13T01:50:51.578Z,5.71
2016-03-13T01:51:51.534Z,5.59
2016-03-13T01:52:51.458Z,5.73
2016-03-13T01:53:51.398Z,5.72
2016-03-13T01:54:51.354Z,5.64
2016-03-13T01:55:51.310Z,5.72
2016-03-13T01:56:51.298Z,5.68
2016-03-13T01:57:51.175Z,5.72
2016-03-13T01:58:51.115Z,5.73
2016-03-13T01:59:51.071Z,5.75
2016-03-13T02:00:51.011Z,5.79
2016-03-13T02:01:50.952Z,5.9
2016-03-13T02:02:50.875Z,5.8
2016-03-13T02:03:50.847Z,5.5
2016-03-13T02:04:50.788Z,5.47
2016-03-13T02:05:50.744Z,5.33
2016-03-13T02:06:50.668Z,5.59
2016-03-13T02:07:50.608Z,5.5
2016-03-13T02:08:50.549Z,5.56
2016-03-13T02:09:50.519Z,5.61
2016-03-13T02:10:50.429Z,5.72
2016-03-13T02:11:50.385Z,5.51
2016-03-13T02:12:50.340Z,5.47
2016-03-13T02:13:50.234Z,5.54
2016-03-13T02:14:50.189Z,5.64
2016-03-13T02:15:50.161Z,5.65
2016-03-13T02:16:50.054Z,5.71
2016-03-13T02:17:50.010Z,5.73
2016-03-13T02:18:49.935Z,5.71
2016-03-13T02:19:49.921Z,5.76
2016-03-13T02:20:49.846Z,5.44
2016-03-13T02:21:49.771Z,5.41
2016-03-13T02:22:49.711Z,5.57
2016-03-13T02:23:49.651Z,5.61
2016-03-13T02:24:49.606Z,5.61
2016-03-13T02:25:49.531Z,5.65
2016-03-13T02:26:49.519Z,5.71
2016-03-13T02:27:49.412Z,5.59
2016-03-13T02:28:49.384Z,5.62
2016-03-13T02:29:49.292Z,5.68
2016-03-13T02:30:49.248Z,5.8
2016-03-13T02:31:49.188Z,5.79
2016-03-13T02:32:49.144Z,5.68
2016-03-13T02:33:49.068Z,5.72
2016-03-13T02:34:48.884Z,5.59
2016-03-13T02:35:48.950Z,5.66
2016-03-13T02:36:48.935Z,5.68
2016-03-13T02:37:48.845Z,5.56
2016-03-13T02:38:48.802Z,5.57
2016-03-13T02:39:48.725Z,5.62
2016-03-13T02:40:48.682Z,5.59
2016-03-13T02:41:48.590Z,5.18
2016-03-13T02:42:48.546Z,5.26
2016-03-13T02:43:48.518Z,5.26
2016-03-13T02:44:48.427Z,5.36
2016-03-13T02:45:48.382Z,5.33
2016-03-13T02:46:48.323Z,5.3
2016-03-13T02:47:48.262Z,5.32
2016-03-13T02:48:48.218Z,5.43
2016-03-13T02:49:48.127Z,5.35
2016-03-13T02:50:48.067Z,5.38
2016-03-13T02:51:48.023Z,5.39
2016-03-13T02:52:47.948Z,5.44
2016-03-13T02:53:47.903Z,5.54
2016-03-13T02:54:47.844Z,5.43
2016-03-13T02:55:47.753Z,5.61
2016-03-13T02:56:47.725Z,5.57
2016-03-13T02:57:47.649Z,5.38
2016-03-13T02:58:47.605Z,5.21
2016-03-13T02:59:47.545Z,5.26
2016-03-13T03:00:47.501Z,5.35
2016-03-13T03:01:47.426Z,5.35
2016-03-13T03:02:47.381Z,5.39
2016-03-13T03:03:47.306Z,5.47
2016-03-13T03:04:47.262Z,5.43
2016-03-13T03:05:47.170Z,5.54
2016-03-13T03:06:47.158Z,5.56
2016-03-13T03:07:47.082Z,5.56
2016-03-13T03:08:47.022Z,5.5
2016-03-13T03:09:46.978Z,5.53
2016-03-13T03:10:46.887Z,5.29
2016-03-13T03:11:46.843Z,5.44
2016-03-13T03:12:46.799Z,5.21
2016-03-13T03:13:46.707Z,5.39
2016-03-13T03:14:46.679Z,5.29
2016-03-13T03:15:46.619Z,5.2
2016-03-13T03:16:46.528Z,5.3
2016-03-13T03:17:46.499Z,5.21
2016-03-13T03:18:46.454Z,5.25
2016-03-13T03:19:46.364Z,5.21
2016-03-13T03:20:46.304Z,5.26
2016-03-13T03:21:46.245Z,5.29
2016-03-13T03:22:46.200Z,5.35
2016-03-13T03:23:46.109Z,5.29
2016-03-13T03:24:46.081Z,5.39
2016-03-13T03:25:46.020Z,5.46
2016-03-13T03:26:45.945Z,5.26
2016-03-13T03:27:45.901Z,5.26
2016-03-13T03:28:45.841Z,5.35
2016-03-13T03:29:45.767Z,5.29
2016-03-13T03:30:45.722Z,5.32
2016-03-13T03:31:45.662Z,5.04
2016-03-13T03:32:45.603Z,5.11
2016-03-13T03:33:45.542Z,5.07
2016-03-13T03:34:45.467Z,5.26
2016-03-13T03:35:45.423Z,5.23
2016-03-13T03:36:45.347Z,5.25
2016-03-13T03:37:45.288Z,5.28
2016-03-13T03:38:45.228Z,5.43
2016-03-13T03:39:45.169Z,5.26
2016-03-13T03:40:45.108Z,5.28
2016-03-13T03:41:45.049Z,5.21
2016-03-13T03:42:45.004Z,5.18
2016-03-13T03:43:44.929Z,5.17
2016-03-13T03:44:44.869Z,5.29
2016-03-13T03:45:44.824Z,5.35
2016-03-13T03:46:44.749Z,5.29
2016-03-13T03:47:44.690Z,5.38
2016-03-13T03:48:44.645Z,5.35
2016-03-13T03:49:44.585Z,5.41
2016-03-13T03:50:44.526Z,5.46
2016-03-13T03:51:44.481Z,5.25
2016-03-13T03:52:44.421Z,5.39
2016-03-13T03:53:44.345Z,5.51
2016-03-13T03:54:44.286Z,5.21
2016-03-13T03:55:44.226Z,4.96
2016-03-13T03:56:44.167Z,5.17
2016-03-13T03:57:44.169Z,5.11
2016-03-13T03:58:44.062Z,4.9
2016-03-13T03:59:44.003Z,5.12
2016-03-13T04:00:43.927Z,5.26
2016-03-13T04:01:43.899Z,5.26
2016-03-13T04:02:43.839Z,5.33
2016-03-13T04:03:43.764Z,5.38
2016-03-13T04:04:43.720Z,5.39
2016-03-13T04:05:43.675Z,5.28
2016-03-13T04:06:43.584Z,5.3
2016-03-13T04:07:43.541Z,5.39
2016-03-13T04:08:43.511Z,5.41
2016-03-13T04:09:43.421Z,5.17
2016-03-13T04:10:43.377Z,5.14
2016-03-13T04:11:43.316Z,5.26
2016-03-13T04:12:43.272Z,5.21
2016-03-13T04:13:43.197Z,5.2
2016-03-13T04:14:43.121Z,5.32
2016-03-13T04:15:43.062Z,5.18
2016-03-13T04:16:43.002Z,5.28
2016-03-13T04:17:42.942Z,5.25
2016-03-13T04:18:42.882Z,5.23
2016-03-13T04:19:42.823Z,5.17
2016-03-13T04:20:42.778Z,5.35
2016-03-13T04:21:42.703Z,5.23
2016-03-13T04:22:42.659Z,5.18
2016-03-13T04:23:42.598Z,5.17
2016-03-13T04:24:42.539Z,5.12
2016-03-13T04:25:42.479Z,5.17
2016-03-13T04:26:42.403Z,5
2016-03-13T04:27:42.454Z,5.11
2016-03-13T04:28:42.284Z,5.07
2016-03-13T04:29:42.256Z,5.2
2016-03-13T04:30:42.165Z,5.18
2016-03-13T04:31:42.120Z,5.18
2016-03-13T04:32:42.076Z,5.21
2016-03-13T04:33:42.017Z,5.26
2016-03-13T04:34:41.942Z,5.3
2016-03-13T04:35:41.912Z,5.14
2016-03-13T04:36:41.837Z,5.11
2016-03-13T04:37:41.793Z,5.11
2016-03-13T04:38:41.702Z,5.14
2016-03-13T04:39:41.642Z,5.23
2016-03-13T04:40:41.582Z,5.3
2016-03-13T04:41:41.538Z,5.25
2016-03-13T04:42:41.510Z,5.18
2016-03-13T04:43:41.418Z,5.23
2016-03-13T04:44:41.343Z,4.94
2016-03-13T04:45:41.283Z,5.2
2016-03-13T04:46:41.223Z,5.18
2016-03-13T04:47:41.179Z,5.17
2016-03-13T04:48:41.135Z,5.2
2016-03-13T04:49:41.043Z,4.67
2016-03-13T04:50:40.984Z,4.8
2016-03-13T04:51:40.939Z,4.87
2016-03-13T04:52:40.864Z,4.97
2016-03-13T04:53:40.804Z,5.04
2016-03-13T04:54:40.760Z,4.97
2016-03-13T04:55:40.684Z,5.05
2016-03-13T04:56:40.625Z,5.17
2016-03-13T04:57:40.581Z,5.04
2016-03-13T04:58:40.505Z,5.07
2016-03-13T04:59:40.430Z,5.11
2016-03-13T05:00:40.386Z,4.99
2016-03-13T05:01:40.154Z,4.96
2016-03-13T05:02:40.251Z,5.11
2016-03-13T05:03:40.206Z,5
2016-03-13T05:04:40.147Z,5
2016-03-13T05:05:40.087Z,4.87
2016-03-13T05:06:40.042Z,4.66
2016-03-13T05:07:39.967Z,4.8
2016-03-13T05:08:39.923Z,4.8
2016-03-13T05:09:39.847Z,4.93
2016-03-13T05:10:39.788Z,4.82
2016-03-13T05:11:39.728Z,4.92
2016-03-13T05:12:39.668Z,4.84
2016-03-13T05:13:39.624Z,4.89
2016-03-13T05:14:39.674Z,4.9
2016-03-13T05:15:39.473Z,5.02
2016-03-13T05:16:39.444Z,4.78
2016-03-13T05:17:39.385Z,4.93
2016-03-13T05:18:39.309Z,5.07
2016-03-13T05:19:39.265Z,5.02
2016-03-13T05:20:39.205Z,4.9
2016-03-13T05:21:39.145Z,4.82
2016-03-13T05:22:39.085Z,4.63
2016-03-13T05:23:39.026Z,4.73
2016-03-13T05:24:38.965Z,4.77
2016-03-13T05:25:38.906Z,4.74
2016-03-13T05:26:38.845Z,4.6
2016-03-13T05:27:38.801Z,4.5
2016-03-13T05:28:38.726Z,4.58
2016-03-13T05:29:38.666Z,4.66
2016-03-13T05:30:38.622Z,4.63
2016-03-13T05:31:38.562Z,4.67
2016-03-13T05:32:38.472Z,4.86
2016-03-13T05:33:38.411Z,4.86
2016-03-13T05:34:38.211Z,4.9
2016-03-13T05:35:38.323Z,5.08
2016-03-13T05:36:38.233Z,5.11
2016-03-13T05:37:38.204Z,4.89
2016-03-13T05:38:38.128Z,4.89
2016-03-13T05:39:38.069Z,5
2016-03-13T05:40:38.009Z,5.1
2016-03-13T05:41:37.949Z,4.96
2016-03-13T05:42:37.905Z,5.08
2016-03-13T05:43:37.814Z,5.18
2016-03-13T05:44:37.769Z,5.2
2016-03-13T05:45:37.741Z,5.23
2016-03-13T05:46:37.656Z,5.05
2016-03-13T05:47:37.638Z,4.92
2016-03-13T05:48:37.618Z,4.5
2016-03-13T05:49:38.005Z,4.78
2016-03-13T05:50:37.414Z,4.82
2016-03-13T05:51:37.480Z,4.93
2016-03-13T05:52:37.279Z,5
2016-03-13T05:53:37.266Z,4.78
2016-03-13T05:54:37.191Z,4.87
2016-03-13T05:55:37.100Z,5.04
2016-03-13T05:56:37.055Z,5.1
2016-03-13T05:57:36.980Z,5.11
2016-03-13T05:58:36.957Z,4.89
2016-03-13T05:59:36.896Z,5.05
2016-03-13T06:00:36.821Z,5.15
2016-03-13T06:01:36.746Z,5.11
2016-03-13T06:02:36.701Z,5
2016-03-13T06:03:36.642Z,5
2016-03-13T06:04:36.582Z,4.93
2016-03-13T06:05:36.522Z,5.1
2016-03-13T06:06:36.475Z,5.12
2016-03-13T06:07:36.400Z,4.97
2016-03-13T06:08:36.340Z,5.15
2016-03-13T06:09:36.281Z,4.94
2016-03-13T06:10:36.236Z,5.11
2016-03-13T06:11:36.161Z,5.04
2016-03-13T06:12:36.101Z,5.11
2016-03-13T06:13:36.057Z,5.25
2016-03-13T06:14:35.997Z,5.15
2016-03-13T06:15:35.937Z,5
2016-03-13T06:16:35.878Z,5.07
2016-03-13T06:17:35.817Z,5.2
2016-03-13T06:18:35.758Z,5.15
2016-03-13T06:19:35.714Z,5.23
2016-03-13T06:20:35.653Z,5.14
2016-03-13T06:21:35.594Z,5.11
2016-03-13T06:22:35.518Z,4.99
2016-03-13T06:23:35.474Z,5.12
2016-03-13T06:24:35.383Z,5.11
2016-03-13T06:25:35.338Z,5.23
2016-03-13T06:26:35.294Z,4.96
2016-03-13T06:27:35.219Z,4.87
2016-03-13T06:28:35.159Z,4.86
2016-03-13T06:29:35.115Z,4.99
2016-03-13T06:30:35.040Z,4.99
2016-03-13T06:31:35.011Z,5.12
2016-03-13T06:32:34.920Z,5.12
2016-03-13T06:33:34.892Z,5.18
2016-03-13T06:34:34.815Z,4.89
2016-03-13T06:35:34.772Z,5.1
2016-03-13T06:36:34.696Z,5.15
2016-03-13T06:37:34.652Z,5.08
2016-03-13T06:38:34.561Z,5.18
2016-03-13T06:39:34.533Z,5.21
2016-03-13T06:40:34.503Z,5.26
2016-03-13T06:41:34.382Z,5.29
2016-03-13T06:42:34.337Z,5.3
2016-03-13T06:43:34.309Z,5.18
2016-03-13T06:44:34.203Z,5.1
2016-03-13T06:45:34.174Z,5.14
2016-03-13T06:46:34.114Z,5.08
2016-03-13T06:47:34.039Z,5.02
2016-03-13T06:48:34.010Z,5.1
2016-03-13T06:49:33.919Z,5.18
2016-03-13T06:50:33.874Z,5.05
2016-03-13T06:51:33.815Z,4.99
2016-03-13T06:52:33.755Z,5.11
2016-03-13T06:53:33.680Z,5.14
2016-03-13T06:54:33.635Z,5.15
2016-03-13T06:55:33.576Z,5.04
2016-03-13T06:56:33.532Z,5.07
2016-03-13T06:57:33.456Z,5.11
2016-03-13T06:58:33.396Z,5.1
2016-03-13T06:59:33.337Z,5.2
2016-03-13T07:00:33.261Z,4.87
2016-03-13T07:01:33.468Z,4.93
2016-03-13T07:02:33.157Z,5.04
2016-03-13T07:03:33.098Z,5.07
2016-03-13T07:04:33.054Z,5.07
2016-03-13T07:05:32.962Z,4.96
2016-03-13T07:06:32.934Z,5.11
2016-03-13T07:07:32.874Z,5.05
2016-03-13T07:08:32.814Z,5.2
2016-03-13T07:09:32.739Z,5.23
2016-03-13T07:10:32.694Z,5.26
2016-03-13T07:11:32.634Z,5.14
2016-03-13T07:12:32.559Z,4.94
2016-03-13T07:13:32.484Z,4.92
2016-03-13T07:14:32.423Z,5.02
2016-03-13T07:15:32.380Z,5.08
2016-03-13T07:16:32.336Z,4.82
2016-03-13T07:17:32.260Z,5.11
2016-03-13T07:18:32.184Z,4.82
2016-03-13T07:19:32.171Z,4.92
2016-03-13T07:20:32.064Z,4.96
2016-03-13T07:21:32.036Z,5.11
2016-03-13T07:22:31.960Z,5.17
2016-03-13T07:23:31.901Z,5.25
2016-03-13T07:24:31.825Z,5.2
2016-03-13T07:25:31.765Z,5.2
2016-03-13T07:26:31.722Z,5.04
2016-03-13T07:27:30.912Z,5.05
2016-03-13T07:28:31.602Z,5.2
2016-03-13T07:29:31.543Z,5.29
2016-03-13T07:30:31.482Z,5.08
2016-03-13T07:31:31.423Z,5.2
2016-03-13T07:32:31.394Z,5.18
2016-03-13T07:33:31.304Z,5.33
2016-03-13T07:34:31.274Z,5.17
2016-03-13T07:35:31.199Z,5.18
2016-03-13T07:36:31.139Z,5.25
2016-03-13T07:37:31.079Z,5.39
2016-03-13T07:38:31.020Z,5.23
2016-03-13T07:39:30.959Z,5.28
2016-03-13T07:40:30.900Z,5.32
2016-03-13T07:41:30.871Z,5.2
2016-03-13T07:42:30.764Z,4.97
2016-03-13T07:43:30.705Z,5.1
2016-03-13T07:44:30.675Z,5.18
2016-03-13T07:45:30.585Z,5.36
2016-03-13T07:46:30.541Z,5.25
2016-03-13T07:47:30.480Z,5.32
2016-03-13T07:48:30.421Z,5.21
2016-03-13T07:49:30.377Z,5.11
2016-03-13T07:50:30.286Z,5.23
2016-03-13T07:51:30.273Z,5.29
2016-03-13T07:52:29.433Z,5.26
2016-03-13T07:53:30.138Z,5.35
2016-03-13T07:54:30.078Z,5.44
2016-03-13T07:55:30.019Z,5.44
2016-03-13T07:56:29.958Z,5.44
2016-03-13T07:57:29.883Z,5.33
2016-03-13T07:58:29.854Z,5.48
2016-03-13T07:59:29.779Z,5.38
2016-03-13T08:00:29.704Z,5.41
2016-03-13T08:01:29.674Z,5.48
2016-03-13T08:02:29.584Z,5.56
2016-03-13T08:03:29.540Z,5.62
2016-03-13T08:04:29.465Z,5.41
2016-03-13T08:05:29.421Z,5.54
2016-03-13T08:06:29.376Z,5.25
2016-03-13T08:07:29.301Z,5.36
2016-03-13T08:08:29.256Z,5.47
2016-03-13T08:09:29.165Z,5.48
2016-03-13T08:10:29.121Z,5.21
2016-03-13T08:11:29.061Z,5.28
2016-03-13T08:12:29.017Z,5.44
2016-03-13T08:13:29.020Z,5.39
2016-03-13T08:14:28.914Z,5.36
2016-03-13T08:15:28.822Z,5.44
2016-03-13T08:16:28.778Z,5.62
2016-03-13T08:17:28.703Z,5.35
2016-03-13T08:18:28.658Z,5.44
2016-03-13T08:19:28.598Z,5.38
2016-03-13T08:20:28.539Z,5.32
2016-03-13T08:21:28.478Z,5.48
2016-03-13T08:22:28.419Z,5.62
2016-03-13T08:23:28.374Z,5.56
2016-03-13T08:24:28.330Z,5.46
2016-03-13T08:25:28.239Z,5.51
2016-03-13T08:26:28.163Z,5.53
2016-03-13T08:27:28.136Z,5.57
2016-03-13T08:28:28.060Z,5.36
2016-03-13T08:29:28.000Z,5.33
2016-03-13T08:30:27.957Z,5.48
2016-03-13T08:31:27.880Z,5.51
2016-03-13T08:32:27.821Z,5.57
2016-03-13T08:33:27.776Z,5.64
2016-03-13T08:34:27.732Z,5.69
2016-03-13T08:35:27.672Z,5.57
2016-03-13T08:36:27.615Z,5.72
2016-03-13T08:37:27.525Z,5.79
2016-03-13T08:38:27.437Z,5.84
2016-03-13T08:39:27.362Z,5.76
2016-03-13T08:40:27.320Z,5.83
2016-03-13T08:41:27.224Z,5.68
2016-03-13T08:42:27.175Z,5.75
2016-03-13T08:43:27.125Z,5.62
2016-03-13T08:44:27.045Z,5.64
2016-03-13T08:45:26.970Z,5.71
2016-03-13T08:46:26.940Z,5.61
2016-03-13T08:47:26.878Z,5.71
2016-03-13T08:48:26.800Z,5.8
2016-03-13T08:49:26.739Z,5.76
2016-03-13T08:50:26.693Z,5.8
2016-03-13T08:51:26.617Z,5.9
2016-03-13T08:52:26.571Z,5.84
2016-03-13T08:53:26.527Z,5.86
2016-03-13T08:54:26.434Z,5.86
2016-03-13T08:55:26.389Z,5.72
2016-03-13T08:56:26.329Z,5.84
2016-03-13T08:57:26.268Z,5.86
2016-03-13T08:58:26.209Z,5.9
2016-03-13T08:59:26.149Z,5.98
2016-03-13T09:00:26.104Z,5.87
2016-03-13T09:01:26.028Z,5.9
2016-03-13T09:02:25.984Z,5.8
2016-03-13T09:03:25.909Z,5.99
2016-03-13T09:04:25.850Z,6.04
2016-03-13T09:05:25.993Z,6.02
2016-03-13T09:06:25.745Z,6.12
2016-03-13T09:07:25.693Z,6.09
2016-03-13T09:08:25.617Z,6.14
2016-03-13T09:09:25.557Z,6.16
2016-03-13T09:10:25.482Z,6.05
2016-03-13T09:11:25.453Z,6.01
2016-03-13T09:12:25.393Z,5.91
2016-03-13T09:13:25.552Z,5.94
2016-03-13T09:14:25.367Z,6.04
2016-03-13T09:15:25.370Z,6.09
2016-03-13T09:16:25.279Z,6.02
2016-03-13T09:17:25.126Z,6.11
2016-03-13T09:18:25.065Z,6.16
2016-03-13T09:19:24.990Z,6.22
2016-03-13T09:20:24.961Z,6.09
2016-03-13T09:21:24.934Z,6.14
2016-03-13T09:22:24.889Z,6.2
2016-03-13T09:23:24.798Z,6.14
2016-03-13T09:24:24.738Z,6.33
2016-03-13T09:25:24.678Z,6.31
2016-03-13T09:26:24.618Z,6.31
2016-03-13T09:27:24.605Z,6.31
2016-03-13T09:28:24.499Z,6.27
2016-03-13T09:29:24.408Z,6.31
2016-03-13T09:30:24.395Z,6.19
2016-03-13T09:31:24.319Z,6.09
2016-03-13T09:32:24.291Z,6.27
2016-03-13T09:33:24.216Z,6.35
2016-03-13T09:34:24.124Z,6.38
2016-03-13T09:35:24.065Z,6.41
2016-03-13T09:36:24.083Z,6.38
2016-03-13T09:37:23.960Z,6.39
2016-03-13T09:38:23.916Z,6.41
2016-03-13T09:39:23.857Z,6.33
2016-03-13T09:40:23.813Z,6.24
2016-03-13T09:41:23.737Z,6.3
2016-03-13T09:42:23.662Z,6.42
2016-03-13T09:43:23.602Z,6.48
2016-03-13T09:44:23.542Z,6.45
2016-03-13T09:45:23.498Z,6.45
2016-03-13T09:46:23.438Z,6.56
2016-03-13T09:47:23.426Z,6.54
2016-03-13T09:48:23.334Z,6.45
2016-03-13T09:49:23.353Z,6.35
2016-03-13T09:50:23.198Z,6.44
2016-03-13T09:51:23.154Z,6.51
2016-03-13T09:52:23.078Z,6.41
2016-03-13T09:53:23.051Z,6.46
2016-03-13T09:54:23.022Z,6.46
2016-03-13T09:55:22.915Z,6.39
2016-03-13T09:56:22.856Z,6.46
2016-03-13T09:57:22.842Z,6.36
2016-03-13T09:58:22.798Z,6.3
2016-03-13T09:59:22.708Z,6.27
2016-03-13T10:00:22.647Z,6.31
2016-03-13T10:01:22.572Z,6.35
2016-03-13T10:02:22.574Z,6.28
2016-03-13T10:03:22.468Z,6.33
2016-03-13T10:04:22.377Z,6.35
2016-03-13T10:05:22.364Z,6.3
2016-03-13T10:06:22.258Z,6.33
2016-03-13T10:07:22.276Z,6.3
2016-03-13T10:08:22.185Z,6.31
2016-03-13T10:09:22.109Z,6.45
2016-03-13T10:10:22.065Z,6.38
2016-03-13T10:11:22.021Z,6.45
2016-03-13T10:12:21.915Z,6.41
2016-03-13T10:13:21.870Z,6.19
2016-03-13T10:14:21.795Z,6.39
2016-03-13T10:15:21.766Z,6.28
2016-03-13T10:16:21.706Z,6.42
2016-03-13T10:17:21.631Z,6.39
2016-03-13T10:18:21.586Z,6.48
2016-03-13T10:19:21.511Z,6.36
2016-03-13T10:20:21.498Z,6.48
2016-03-13T10:21:21.422Z,6.44
2016-03-13T10:22:21.362Z,6.52
2016-03-13T10:23:21.334Z,6.54
2016-03-13T10:24:21.228Z,6.48
2016-03-13T10:25:21.184Z,6.49
2016-03-13T10:26:21.123Z,6.38
2016-03-13T10:27:21.048Z,6.56
2016-03-13T10:28:20.988Z,6.62
2016-03-13T10:29:20.960Z,6.72
2016-03-13T10:30:20.884Z,6.75
2016-03-13T10:31:20.824Z,6.79
2016-03-13T10:32:20.780Z,6.69
2016-03-13T10:33:20.767Z,6.85
2016-03-13T10:34:20.724Z,7.13
2016-03-13T10:35:20.679Z,7.07
2016-03-13T10:36:20.604Z,7.21
2016-03-13T10:37:20.496Z,7.18
2016-03-13T10:38:20.421Z,7.24
2016-03-13T10:39:20.393Z,7.38
2016-03-13T10:40:20.318Z,7.25
2016-03-13T10:41:20.289Z,7.45
2016-03-13T10:42:20.182Z,7.51
2016-03-13T10:43:20.138Z,7.57
2016-03-13T10:44:20.079Z,7.61
2016-03-13T10:45:20.065Z,7.45
2016-03-13T10:46:19.974Z,7.51
2016-03-13T10:47:19.930Z,7.42
2016-03-13T10:48:19.901Z,7.5
2016-03-13T10:49:19.810Z,7.56
2016-03-13T10:50:19.750Z,7.69
2016-03-13T10:51:19.722Z,7.66
2016-03-13T10:52:19.647Z,7.69
2016-03-13T10:53:19.650Z,7.61
2016-03-13T10:54:19.559Z,7.58
2016-03-13T10:55:19.467Z,7.61
2016-03-13T10:56:19.423Z,7.57
2016-03-13T10:57:19.364Z,7.11
2016-03-13T10:58:19.304Z,7.18
2016-03-13T10:59:19.228Z,7.05
2016-03-13T11:00:19.168Z,7.21
2016-03-13T11:01:19.092Z,7.31
2016-03-13T11:02:19.064Z,7.24
2016-03-13T11:03:19.020Z,7.28
2016-03-13T11:04:19.022Z,7.05
2016-03-13T11:05:18.869Z,6.85
2016-03-13T11:06:18.791Z,7.07
2016-03-13T11:07:18.763Z,7.17
2016-03-13T11:08:18.687Z,7.2
2016-03-13T11:09:18.658Z,7.17
2016-03-13T11:10:18.630Z,7.17
2016-03-13T11:11:18.507Z,7.15
2016-03-13T11:12:18.479Z,7.23
2016-03-13T11:13:18.404Z,7.29
2016-03-13T11:14:18.374Z,7.28
2016-03-13T11:15:18.268Z,7.33
2016-03-13T11:16:18.223Z,7.36
2016-03-13T11:17:18.179Z,7.38
2016-03-13T11:18:18.104Z,7.33
2016-03-13T11:19:18.060Z,7.29
2016-03-13T11:20:17.985Z,6.93
2016-03-13T11:21:17.941Z,6.77
2016-03-13T11:22:17.881Z,6.84
2016-03-13T11:23:17.884Z,6.99
2016-03-13T11:24:17.792Z,7.13
2016-03-13T11:25:17.733Z,6.79
2016-03-13T11:26:17.626Z,6.92
2016-03-13T11:27:17.613Z,6.93
2016-03-13T11:28:16.819Z,6.92
2016-03-13T11:29:17.478Z,7.03
2016-03-13T11:30:17.417Z,7.15
2016-03-13T11:31:17.358Z,7.05
2016-03-13T11:32:17.330Z,6.99
2016-03-13T11:33:17.208Z,6.97
2016-03-13T11:34:17.195Z,7.02
2016-03-13T11:35:17.119Z,7.13
2016-03-13T11:36:17.059Z,7.07
2016-03-13T11:37:16.953Z,6.84
2016-03-13T11:38:16.940Z,7.03
2016-03-13T11:39:16.880Z,7.18
2016-03-13T11:40:16.836Z,7
2016-03-13T11:41:16.761Z,7.03
2016-03-13T11:42:16.700Z,7.03
2016-03-13T11:43:16.625Z,6.97
2016-03-13T11:44:16.613Z,7
2016-03-13T11:45:16.583Z,7.03
2016-03-13T11:46:16.461Z,7.11
2016-03-13T11:47:16.463Z,6.62
2016-03-13T11:48:16.388Z,6.77
2016-03-13T11:49:16.313Z,6.63
2016-03-13T11:50:16.253Z,6.74
2016-03-13T11:51:16.209Z,6.75
2016-03-13T11:52:16.134Z,6.79
2016-03-13T11:53:16.059Z,6.78
2016-03-13T11:54:16.092Z,6.77
2016-03-13T11:55:16.017Z,6.85
2016-03-13T11:56:16.004Z,6.92
2016-03-13T11:57:15.819Z,6.82
2016-03-13T11:58:15.790Z,6.85
2016-03-13T11:59:15.762Z,6.92
2016-03-13T12:00:15.686Z,6.89
2016-03-13T12:01:15.659Z,6.95
2016-03-13T12:02:15.552Z,7.05
2016-03-13T12:03:15.476Z,7.13
2016-03-13T12:04:15.479Z,7.28
2016-03-13T12:05:15.420Z,7.24
2016-03-13T12:06:15.312Z,7.23
2016-03-13T12:07:15.284Z,7.18
2016-03-13T12:08:15.177Z,7.29
2016-03-13T12:09:15.117Z,7.15
2016-03-13T12:10:15.119Z,7.2
2016-03-13T12:11:15.013Z,7.15
2016-03-13T12:12:14.953Z,7.29
2016-03-13T12:13:14.909Z,7.32
2016-03-13T12:14:14.897Z,7.25
2016-03-13T12:15:14.774Z,7.21
2016-03-13T12:16:14.746Z,7.32
2016-03-13T12:17:14.701Z,7.38
2016-03-13T12:18:14.782Z,7.43
2016-03-13T12:19:14.738Z,7.24
2016-03-13T12:20:14.803Z,7.36
2016-03-13T12:21:14.649Z,7.39
2016-03-13T12:22:14.387Z,7.45
2016-03-13T12:23:14.374Z,7.5
2016-03-13T12:24:14.377Z,7.51
2016-03-13T12:25:14.207Z,7.56
2016-03-13T12:26:14.023Z,7.63
2016-03-13T12:27:14.087Z,7.66
2016-03-13T12:28:14.043Z,7.7
2016-03-13T12:29:13.859Z,7.73
2016-03-13T12:30:13.908Z,7.88
2016-03-13T12:31:13.865Z,7.91
2016-03-13T12:32:13.867Z,7.88
2016-03-13T12:33:13.807Z,7.83
2016-03-13T12:34:13.701Z,7.88
2016-03-13T12:35:13.672Z,7.87
2016-03-13T12:36:13.596Z,7.97
2016-03-13T12:37:13.583Z,7.76
2016-03-13T12:38:13.476Z,7.75
2016-03-13T12:39:13.479Z,7.54
2016-03-13T12:40:13.356Z,7.75
2016-03-13T12:41:13.313Z,7.72
2016-03-13T12:42:13.237Z,7.75
2016-03-13T12:43:13.178Z,7.73
2016-03-13T12:44:13.149Z,7.82
2016-03-13T12:45:13.058Z,7.82
2016-03-13T12:46:13.092Z,7.9
2016-03-13T12:47:13.000Z,7.83
2016-03-13T12:48:12.941Z,7.5
2016-03-13T12:49:12.834Z,7.75
2016-03-13T12:50:12.775Z,7.43
2016-03-13T12:51:12.808Z,7.75
2016-03-13T12:52:12.685Z,7.9
2016-03-13T12:53:12.642Z,7.7
2016-03-13T12:54:12.535Z,7.75
2016-03-13T12:55:12.507Z,7.77
2016-03-13T12:56:12.494Z,7.77
2016-03-13T12:57:12.434Z,7.88
2016-03-13T12:58:12.327Z,7.76
2016-03-13T12:59:12.845Z,7.88
2016-03-13T13:00:12.317Z,7.75
2016-03-13T13:01:12.195Z,7.79
2016-03-13T13:02:12.104Z,8
2016-03-13T13:03:12.013Z,7.75
2016-03-13T13:04:11.984Z,7.77
2016-03-13T13:05:11.893Z,7.83
2016-03-13T13:06:11.692Z,7.87
2016-03-13T13:07:11.836Z,7.98
2016-03-13T13:08:11.745Z,8
2016-03-13T13:09:11.766Z,8
2016-03-13T13:10:11.676Z,8
2016-03-13T13:11:11.632Z,8.08
2016-03-13T13:12:11.510Z,8
2016-03-13T13:13:11.434Z,7.98
2016-03-13T13:14:11.390Z,7.88
2016-03-13T13:15:11.362Z,7.8
2016-03-13T13:16:11.285Z,7.79
2016-03-13T13:17:11.226Z,7.76
2016-03-13T13:18:11.150Z,7.73
2016-03-13T13:19:11.154Z,7.91
2016-03-13T13:20:11.062Z,7.7
2016-03-13T13:21:11.002Z,7.66
2016-03-13T13:22:10.942Z,7.48